| time (UTC) | temp F | wind direction | speed MPH | gust MPH | rain 1hr in | rain 24hr in | rain mn in | humidity % | barometer mb |
| 20260506073026 | 47 | 213 | 10.0 | 20.0 | 0.00 | 0.00 | 0.00 | 92 | 1017.5 |
| 20260506071522 | 48 | 225 | 11.0 | 22.0 | 0.00 | 0.00 | 0.00 | 92 | 1017.4 |
| 20260506061516 | 50 | 235 | 10.0 | 25.0 | 0.00 | 0.00 | 0.00 | 90 | 1017.5 |
| 20260506044515 | 51 | 236 | 18.0 | 28.0 | 0.00 | 0.00 | 0.00 | 89 | 1017.4 |
| 20260506043009 | 50 | 171 | 13.0 | 23.0 | 0.00 | 0.00 | 0.00 | 90 | 1017.2 |
| 20260506041506 | 50 | 224 | 13.0 | 25.0 | 0.00 | 0.00 | 0.00 | 90 | 1017.3 |
| 20260506040004 | 51 | 203 | 14.0 | 25.0 | 0.00 | 0.00 | 0.00 | 90 | 1017.4 |
| 20260506034503 | 51 | 225 | 15.0 | 28.0 | 0.00 | 0.00 | 0.00 | 90 | 1017.2 |
| 20260506033100 | 51 | 221 | 13.0 | 29.0 | 0.00 | 0.00 | 0.00 | 90 | 1017.4 |
| 20260506031559 | 51 | 212 | 12.0 | 25.0 | 0.00 | 0.00 | 0.00 | 91 | 1017.3 |
| 20260506030057 | 51 | 243 | 16.0 | 28.0 | 0.00 | 0.00 | 0.00 | 91 | 1017.4 |
| 20260506024606 | 50 | 219 | 14.0 | 21.0 | 0.00 | 0.00 | 0.00 | 92 | 1017.5 |
| 20260506023109 | 49 | 218 | 10.0 | 19.0 | 0.00 | 0.00 | 0.00 | 92 | 1017.5 |
| 20260506021554 | 50 | 222 | 14.0 | 24.0 | 0.00 | 0.00 | 0.00 | 92 | 1017.4 |
| 20260506020055 | 50 | 203 | 13.0 | 25.0 | 0.00 | 0.00 | 0.00 | 92 | 1017.2 |
| 20260506014651 | 50 | 219 | 11.0 | 19.0 | 0.00 | 0.00 | 0.00 | 93 | 1017.1 |
| 20260506013055 | 49 | 211 | 12.0 | 23.0 | 0.00 | 0.00 | 0.00 | 94 | 1017.1 |
| 20260506011549 | 48 | 218 | 13.0 | 22.0 | 0.00 | 0.00 | 0.00 | 94 | 1016.8 |
| 20260506010049 | 48 | 206 | 15.0 | 25.0 | 0.00 | 0.00 | 0.00 | 94 | 1016.7 |
| 20260506004546 | 47 | 200 | 12.0 | 19.0 | 0.00 | 0.00 | 0.00 | 94 | 1016.5 |
| 20260506003044 | 47 | 177 | 9.0 | 17.0 | 0.00 | 0.00 | 0.00 | 94 | 1016.4 |
| 20260506001550 | 47 | 218 | 12.0 | 22.0 | 0.00 | 0.00 | 0.00 | 94 | 1016.3 |
| 20260506000041 | 47 | 239 | 12.0 | 20.0 | 0.00 | 0.00 | 0.00 | 94 | 1015.9 |
| 20260505234541 | 47 | 202 | 10.0 | 18.0 | 0.00 | 0.00 | 0.00 | 93 | 1015.8 |
| 20260505233040 | 48 | 194 | 8.0 | 21.0 | 0.00 | 0.00 | 0.00 | 92 | 1015.7 |
| 20260505231539 | 49 | 231 | 13.0 | 20.0 | 0.00 | 0.00 | 0.00 | 91 | 1015.6 |
| 20260505230058 | 49 | 218 | 11.0 | 19.0 | 0.00 | 0.00 | 0.00 | 89 | 1015.5 |
| 20260505224536 | 50 | 217 | 10.0 | 21.0 | 0.00 | 0.00 | 0.00 | 87 | 1015.0 |
| 20260505223039 | 52 | 227 | 11.0 | 21.0 | 0.00 | 0.00 | 0.00 | 85 | 1015.0 |
| 20260505221538 | 51 | 212 | 8.0 | 18.0 | 0.00 | 0.00 | 0.00 | 84 | 1014.7 |
| 20260505220048 | 52 | 197 | 11.0 | 19.0 | 0.00 | 0.00 | 0.00 | 82 | 1014.6 |
| 20260505214535 | 54 | 202 | 12.0 | 19.0 | 0.00 | 0.00 | 0.00 | 79 | 1014.5 |
| 20260505213033 | 56 | 196 | 11.0 | 21.0 | 0.00 | 0.00 | 0.00 | 75 | 1014.4 |
| 20260505211531 | 57 | 223 | 12.0 | 24.0 | 0.00 | 0.00 | 0.00 | 74 | 1014.1 |
| 20260505210032 | 57 | 181 | 14.0 | 23.0 | 0.00 | 0.00 | 0.00 | 72 | 1014.3 |
| 20260505204528 | 57 | 200 | 12.0 | 22.0 | 0.00 | 0.00 | 0.00 | 72 | 1014.4 |
| 20260505203026 | 57 | 189 | 12.0 | 21.0 | 0.00 | 0.00 | 0.00 | 70 | 1014.3 |
| 20260505201526 | 58 | 231 | 11.0 | 21.0 | 0.00 | 0.00 | 0.00 | 70 | 1014.2 |
| 20260505200034 | 58 | 200 | 11.0 | 20.0 | 0.00 | 0.00 | 0.00 | 69 | 1014.2 |
| 20260505194522 | 59 | 217 | 12.0 | 21.0 | 0.00 | 0.00 | 0.00 | 67 | 1014.0 |
| 20260505193020 | 61 | 169 | 12.0 | 21.0 | 0.00 | 0.00 | 0.00 | 63 | 1013.7 |
| 20260505191526 | 63 | 189 | 13.0 | 25.0 | 0.00 | 0.00 | 0.00 | 60 | 1013.5 |
| 20260505190019 | 62 | 221 | 13.0 | 26.0 | 0.00 | 0.00 | 0.00 | 61 | 1013.4 |
| 20260505184518 | 62 | 218 | 18.0 | 28.0 | 0.00 | 0.00 | 0.00 | 62 | 1013.4 |
| 20260505183020 | 63 | 177 | 13.0 | 24.0 | 0.00 | 0.00 | 0.00 | 62 | 1013.4 |
| 20260505181521 | 63 | 182 | 13.0 | 21.0 | 0.00 | 0.00 | 0.00 | 61 | 1013.6 |
| 20260505180012 | 60 | 223 | 11.0 | 20.0 | 0.00 | 0.00 | 0.00 | 65 | 1013.6 |
| 20260505174511 | 60 | 191 | 13.0 | 20.0 | 0.00 | 0.00 | 0.00 | 66 | 1013.5 |
| 20260505173011 | 59 | 221 | 9.0 | 19.0 | 0.00 | 0.00 | 0.00 | 70 | 1013.6 |
| 20260505171508 | 58 | 199 | 12.0 | 19.0 | 0.00 | 0.00 | 0.00 | 69 | 1013.6 |
| 20260505170005 | 58 | 183 | 13.0 | 21.0 | 0.00 | 0.00 | 0.00 | 70 | 1013.5 |
| 20260505164504 | 56 | 228 | 8.0 | 17.0 | 0.00 | 0.00 | 0.00 | 73 | 1013.6 |
| 20260505163007 | 55 | 228 | 9.0 | 17.0 | 0.00 | 0.00 | 0.00 | 74 | 1013.7 |
| 20260505161509 | 55 | 200 | 8.0 | 17.0 | 0.00 | 0.00 | 0.00 | 74 | 1013.6 |
| 20260505153059 | 52 | 172 | 11.0 | 20.0 | 0.00 | 0.00 | 0.00 | 74 | 1013.7 |
| 20260505151558 | 54 | 238 | 13.0 | 20.0 | 0.00 | 0.00 | 0.00 | 72 | 1013.5 |
| 20260505150107 | 55 | 152 | 9.0 | 19.0 | 0.00 | 0.00 | 0.00 | 73 | 1013.4 |
| 20260505124534 | 53 | 198 | 7.0 | 15.0 | 0.00 | 0.00 | 0.00 | 77 | 1013.1 |
| 20260505123034 | 52 | 239 | 11.0 | 18.0 | 0.00 | 0.00 | 0.00 | 76 | 1012.9 |
| 20260505121537 | 52 | 255 | 7.0 | 15.0 | 0.00 | 0.00 | 0.00 | 77 | 1012.8 |
| 20260505120030 | 51 | 220 | 7.0 | 13.0 | 0.00 | 0.00 | 0.00 | 80 | 1012.8 |
| 20260505114527 | 50 | 233 | 7.0 | 14.0 | 0.00 | 0.00 | 0.00 | 80 | 1012.8 |
| 20260505113024 | 50 | 233 | 9.0 | 15.0 | 0.00 | 0.00 | 0.00 | 79 | 1012.6 |
| 20260505111521 | 50 | 280 | 6.0 | 10.0 | 0.00 | 0.00 | 0.00 | 81 | 1012.5 |
| 20260505101505 | 43 | 223 | 4.0 | 9.0 | 0.00 | 0.00 | 0.00 | 89 | 1012.0 |
| 20260505100011 | 42 | 220 | 2.0 | 9.0 | 0.00 | 0.00 | 0.00 | 91 | 1011.8 |
| 20260505094503 | 41 | 245 | 3.0 | 5.0 | 0.00 | 0.00 | 0.00 | 92 | 1011.6 |
| 20260505093002 | 40 | 242 | 3.0 | 7.0 | 0.00 | 0.00 | 0.00 | 92 | 1011.5 |
| 20260505091611 | 40 | 248 | 2.0 | 6.0 | 0.00 | 0.00 | 0.00 | 92 | 1011.6 |
| 20260505090105 | 40 | 245 | 2.0 | 4.0 | 0.00 | 0.00 | 0.00 | 91 | 1011.2 |
| 20260505084558 | 40 | 245 | 2.0 | 5.0 | 0.00 | 0.00 | 0.00 | 91 | 1011.1 |
| 20260505083101 | 40 | 229 | 3.0 | 7.0 | 0.00 | 0.00 | 0.00 | 91 | 1010.7 |
| 20260505081558 | 40 | 250 | 3.0 | 8.0 | 0.00 | 0.00 | 0.00 | 91 | 1010.5 |
| 20260505080051 | 41 | 246 | 2.0 | 4.0 | 0.00 | 0.00 | 0.00 | 89 | 1010.3 |
| 20260505074548 | 42 | 246 | 1.0 | 5.0 | 0.00 | 0.03 | 0.00 | 88 | 1010.0 |